Terminal Aerodrome Forecast
Issued by NWS Mt. Holly, NJ

Home | Current Version | Previous Version | Text Only | Print | Product List | Glossary On
Versions: 1 2 3 4 5 6 7 8 9 10 11 12 13 14 15 16 17 18 19 20 21 22 23
950
FTUS41 KPHI 301120
TAFABE
TAF
KABE 301120Z 3012/0112 07005KT P6SM OVC035
      TEMPO 3012/3014 OVC025
     FM301500 08004KT P6SM BKN040
     FM301800 15005KT P6SM BKN050
     FM010500 12005KT P6SM -RA SCT025 BKN040
     FM010800 09009KT 5SM -RA SCT008 BKN015=

USA.gov is the U.S. government's official web portal to all federal, state and local government web resources and services.